Time;durP1;ratioP1;P1;durP2;ratioP2;P2;SDS_P1;SDS_P2;PMS_P1;PMS_P2;Temp;Humidity;BMP_temperature;BMP_pressure;BME280_temperature;BME280_humidity;BME280_pressure;Samples;Min_cycle;Max_cycle;Signal;HPM_P1;HPM_P2
2022/07/17 00:01:19;;;;;;;0.43;0.43;;;;;;;;;;5078118;28;20212;-57
2022/07/17 00:04:06;;;;;;;0.40;0.40;;;;;;;;;;5070503;28;20648;-58
2022/07/17 00:06:54;;;;;;;0.40;0.40;;;;;;;;;;5078143;28;20225;-58
2022/07/17 00:09:41;;;;;;;0.50;0.50;;;;;;;;;;5071036;28;20352;-58
2022/07/17 00:12:28;;;;;;;0.50;0.50;;;;;;;;;;5074456;28;20295;-57
2022/07/17 00:15:15;;;;;;;0.30;0.30;;;;;;;;;;5069381;28;20688;-57
2022/07/17 00:18:03;;;;;;;0.30;0.30;;;;;;;;;;5070141;28;20284;-58
2022/07/17 00:20:50;;;;;;;0.30;0.30;;;;;;;;;;5076245;28;20253;-57
2022/07/17 00:23:39;;;;;;;0.30;0.30;;;;;;;;;;5069152;28;20599;-57
2022/07/17 00:26:26;;;;;;;0.37;0.37;;;;;;;;;;5074873;28;20344;-57
2022/07/17 00:29:13;;;;;;;0.40;0.40;;;;;;;;;;5075380;28;20213;-58
2022/07/17 00:32:00;;;;;;;0.33;0.33;;;;;;;;;;5070767;28;20219;-58
2022/07/17 00:34:47;;;;;;;0.40;0.40;;;;;;;;;;5072345;28;20202;-58
2022/07/17 00:37:39;;;;;;;0.67;0.67;;;;;;;;;;5084613;28;20724;-58
2022/07/17 00:40:27;;;;;;;0.33;0.33;;;;;;;;;;5088649;28;20205;-58
2022/07/17 00:43:14;;;;;;;0.67;0.33;;;;;;;;;;5090823;28;20673;-58
2022/07/17 00:46:03;;;;;;;0.70;0.50;;;;;;;;;;5089694;28;20314;-58
2022/07/17 00:48:50;;;;;;;0.50;0.50;;;;;;;;;;5085243;28;20656;-58
2022/07/17 00:51:37;;;;;;;0.50;0.50;;;;;;;;;;5104980;28;20199;-58
2022/07/17 00:54:25;;;;;;;0.50;0.50;;;;;;;;;;5104670;28;20240;-57
2022/07/17 00:57:15;;;;;;;0.60;0.40;;;;;;;;;;5100988;28;20215;-58
2022/07/17 01:00:06;;;;;;;0.50;0.50;;;;;;;;;;5100137;28;20214;-59
2022/07/17 01:02:54;;;;;;;0.63;0.50;;;;;;;;;;5109274;28;20694;-62
2022/07/17 01:05:43;;;;;;;0.77;0.67;;;;;;;;;;5097573;28;20231;-62
2022/07/17 01:08:30;;;;;;;0.47;0.40;;;;;;;;;;5091896;28;20201;-62
2022/07/17 01:11:17;;;;;;;0.40;0.40;;;;;;;;;;5106508;28;20208;-62
2022/07/17 01:14:06;;;;;;;1.03;0.67;;;;;;;;;;5097713;28;20199;-62
2022/07/17 01:16:54;;;;;;;0.83;0.67;;;;;;;;;;5091914;28;20220;-62
2022/07/17 01:19:41;;;;;;;0.40;0.40;;;;;;;;;;5096138;28;20200;-62
2022/07/17 01:22:29;;;;;;;0.60;0.60;;;;;;;;;;5099566;28;20209;-62
2022/07/17 01:25:20;;;;;;;1.47;0.50;;;;;;;;;;5106780;28;20223;-63
2022/07/17 01:28:07;;;;;;;0.40;0.40;;;;;;;;;;5097410;28;20267;-62
2022/07/17 01:30:54;;;;;;;0.63;0.50;;;;;;;;;;5108370;28;20195;-61
2022/07/17 01:33:41;;;;;;;1.00;0.67;;;;;;;;;;5098834;28;20224;-62
2022/07/17 01:36:28;;;;;;;0.50;0.50;;;;;;;;;;5098754;28;20235;-62
2022/07/17 01:39:16;;;;;;;0.60;0.50;;;;;;;;;;5107465;28;20218;-62
2022/07/17 01:42:03;;;;;;;0.50;0.43;;;;;;;;;;5101015;28;20208;-63
2022/07/17 01:44:51;;;;;;;0.73;0.60;;;;;;;;;;5107927;28;20707;-62
2022/07/17 01:47:38;;;;;;;0.40;0.40;;;;;;;;;;5083293;28;20204;-62
2022/07/17 01:50:25;;;;;;;1.37;0.90;;;;;;;;;;5087985;28;20205;-62
2022/07/17 01:53:12;;;;;;;0.57;0.50;;;;;;;;;;5087958;28;20257;-62
2022/07/17 01:56:00;;;;;;;0.57;0.57;;;;;;;;;;5095453;28;20254;-61
2022/07/17 01:58:47;;;;;;;0.63;0.50;;;;;;;;;;5101936;28;20226;-62
2022/07/17 02:01:34;;;;;;;0.83;0.47;;;;;;;;;;5099858;28;20200;-62
2022/07/17 02:04:21;;;;;;;0.57;0.50;;;;;;;;;;5100616;28;20234;-62
2022/07/17 02:07:09;;;;;;;0.90;0.53;;;;;;;;;;5099109;28;20213;-62
2022/07/17 02:09:56;;;;;;;0.70;0.50;;;;;;;;;;5109382;28;20289;-62
2022/07/17 02:12:45;;;;;;;1.00;0.70;;;;;;;;;;5097683;28;20213;-62
2022/07/17 02:15:32;;;;;;;1.33;0.80;;;;;;;;;;5073070;28;20304;-62
2022/07/17 02:18:19;;;;;;;0.60;0.60;;;;;;;;;;5084538;28;20212;-62
2022/07/17 02:21:06;;;;;;;0.50;0.50;;;;;;;;;;5074891;28;20233;-63
2022/07/17 02:23:53;;;;;;;0.80;0.70;;;;;;;;;;5075948;28;20201;-62
2022/07/17 02:26:40;;;;;;;0.70;0.60;;;;;;;;;;5083781;28;20698;-62
2022/07/17 02:29:28;;;;;;;0.77;0.60;;;;;;;;;;5087001;28;20208;-62
2022/07/17 02:32:15;;;;;;;0.77;0.50;;;;;;;;;;5088158;28;20206;-62
2022/07/17 02:35:02;;;;;;;1.00;0.80;;;;;;;;;;5088988;28;20717;-62
2022/07/17 02:37:49;;;;;;;0.63;0.63;;;;;;;;;;5086438;28;20237;-62
2022/07/17 02:40:36;;;;;;;0.50;0.47;;;;;;;;;;5088291;28;20338;-62
2022/07/17 02:43:23;;;;;;;0.80;0.67;;;;;;;;;;5085891;28;20250;-62
2022/07/17 02:46:13;;;;;;;0.70;0.70;;;;;;;;;;5086928;28;20232;-62
2022/07/17 02:49:00;;;;;;;0.83;0.30;;;;;;;;;;5083413;28;20206;-62
2022/07/17 02:51:47;;;;;;;0.90;0.63;;;;;;;;;;5077343;28;20212;-62
2022/07/17 02:54:34;;;;;;;0.60;0.60;;;;;;;;;;5072519;28;20213;-63
2022/07/17 02:57:21;;;;;;;0.60;0.60;;;;;;;;;;5083599;28;20682;-62
2022/07/17 03:00:11;;;;;;;0.70;0.70;;;;;;;;;;5087757;28;20197;-62
2022/07/17 03:02:59;;;;;;;0.80;0.70;;;;;;;;;;5091721;28;20200;-62
2022/07/17 03:05:46;;;;;;;0.50;0.40;;;;;;;;;;5089446;28;20645;-62
2022/07/17 03:08:33;;;;;;;0.77;0.77;;;;;;;;;;5091698;28;20246;-62
2022/07/17 03:11:20;;;;;;;0.83;0.70;;;;;;;;;;5093301;28;20208;-63
2022/07/17 03:14:07;;;;;;;0.70;0.60;;;;;;;;;;5091452;28;20654;-62
2022/07/17 03:16:54;;;;;;;1.40;0.70;;;;;;;;;;5092279;28;20212;-62
2022/07/17 03:19:42;;;;;;;1.03;0.73;;;;;;;;;;5093290;28;20209;-62
2022/07/17 03:22:29;;;;;;;0.80;0.80;;;;;;;;;;5092299;28;20205;-62
2022/07/17 03:25:16;;;;;;;0.77;0.77;;;;;;;;;;5091999;28;20259;-62
2022/07/17 03:28:04;;;;;;;0.70;0.57;;;;;;;;;;5106158;28;20202;-62
2022/07/17 03:30:51;;;;;;;0.70;0.50;;;;;;;;;;5102189;28;20208;-62
2022/07/17 03:33:38;;;;;;;1.10;0.60;;;;;;;;;;5107891;28;20275;-62
2022/07/17 03:36:26;;;;;;;1.47;1.00;;;;;;;;;;5092783;28;20268;-62
2022/07/17 03:39:13;;;;;;;1.53;1.07;;;;;;;;;;5071220;28;20221;-64
2022/07/17 03:42:00;;;;;;;0.90;0.87;;;;;;;;;;5065082;28;20260;-65
2022/07/17 03:44:47;;;;;;;0.77;0.70;;;;;;;;;;5066132;28;20205;-62
2022/07/17 03:47:35;;;;;;;0.93;0.80;;;;;;;;;;5057986;28;20575;-62
2022/07/17 03:50:22;;;;;;;1.60;0.90;;;;;;;;;;5069699;28;20204;-62
2022/07/17 03:53:10;;;;;;;1.67;0.90;;;;;;;;;;5069081;28;20683;-62
2022/07/17 03:55:57;;;;;;;1.40;1.10;;;;;;;;;;5091699;28;20971;-62
2022/07/17 03:58:44;;;;;;;1.43;0.80;;;;;;;;;;5089836;28;20675;-62
2022/07/17 04:01:31;;;;;;;1.30;0.90;;;;;;;;;;5089868;28;20204;-62
2022/07/17 04:04:18;;;;;;;1.23;1.00;;;;;;;;;;5091428;28;20629;-62
2022/07/17 04:07:05;;;;;;;1.10;1.00;;;;;;;;;;5088967;28;20239;-62
2022/07/17 04:09:54;;;;;;;1.77;0.90;;;;;;;;;;5090576;28;20204;-62
2022/07/17 04:12:42;;;;;;;2.00;0.80;;;;;;;;;;5088650;28;20210;-62
2022/07/17 04:18:36;;;;;;;1.80;0.97;;;;;;;;;;5091014;28;20210;-63
2022/07/17 04:21:24;;;;;;;1.40;0.97;;;;;;;;;;5089449;28;20208;-62
2022/07/17 04:24:11;;;;;;;1.00;0.90;;;;;;;;;;5091106;28;20671;-62
2022/07/17 04:26:59;;;;;;;1.00;0.83;;;;;;;;;;5088662;28;20230;-62
2022/07/17 04:29:46;;;;;;;2.27;1.50;;;;;;;;;;5088732;28;20197;-62
2022/07/17 04:32:33;;;;;;;1.00;0.90;;;;;;;;;;5089089;28;20496;-61
2022/07/17 04:35:20;;;;;;;1.57;1.23;;;;;;;;;;5089908;28;20659;-61
2022/07/17 04:38:08;;;;;;;1.83;0.70;;;;;;;;;;5090353;28;20214;-62
2022/07/17 04:40:56;;;;;;;1.43;0.80;;;;;;;;;;5085315;28;20269;-61
2022/07/17 04:43:45;;;;;;;2.50;1.10;;;;;;;;;;5083008;28;20221;-62
2022/07/17 04:46:32;;;;;;;2.73;1.00;;;;;;;;;;5086073;28;20305;-62
2022/07/17 04:49:19;;;;;;;1.63;1.20;;;;;;;;;;5088816;28;20199;-62
2022/07/17 04:52:06;;;;;;;1.40;1.20;;;;;;;;;;5087110;28;20680;-62
2022/07/17 04:54:53;;;;;;;2.27;1.23;;;;;;;;;;5081205;28;20208;-62
2022/07/17 04:57:40;;;;;;;3.10;1.40;;;;;;;;;;5083049;28;20694;-63
2022/07/17 05:00:28;;;;;;;1.53;1.20;;;;;;;;;;5081651;28;20208;-62
2022/07/17 05:03:15;;;;;;;2.57;1.33;;;;;;;;;;5080963;28;20728;-62
2022/07/17 05:06:02;;;;;;;1.20;1.10;;;;;;;;;;5084916;28;20230;-62
2022/07/17 05:08:49;;;;;;;2.17;1.17;;;;;;;;;;5086865;28;20236;-62
2022/07/17 05:11:36;;;;;;;1.20;0.97;;;;;;;;;;5083088;28;20205;-62
2022/07/17 05:14:23;;;;;;;1.13;1.03;;;;;;;;;;5082952;28;20232;-62
2022/07/17 05:17:11;;;;;;;2.70;1.50;;;;;;;;;;5087549;28;20201;-62
2022/07/17 05:19:58;;;;;;;1.10;1.00;;;;;;;;;;5082712;28;20285;-62
2022/07/17 05:22:45;;;;;;;1.70;0.83;;;;;;;;;;5083409;28;20208;-62
2022/07/17 05:25:33;;;;;;;1.67;1.30;;;;;;;;;;5087566;28;20232;-62
2022/07/17 05:28:20;;;;;;;1.87;1.23;;;;;;;;;;5080984;28;20215;-62
2022/07/17 05:31:07;;;;;;;1.40;0.90;;;;;;;;;;5080820;28;20292;-62
2022/07/17 05:33:55;;;;;;;1.53;1.00;;;;;;;;;;5081364;28;20378;-62
2022/07/17 05:36:42;;;;;;;2.13;1.30;;;;;;;;;;5097145;28;20237;-62
2022/07/17 05:39:29;;;;;;;2.93;1.20;;;;;;;;;;5106230;28;20219;-62
2022/07/17 05:42:16;;;;;;;1.20;1.00;;;;;;;;;;5108015;28;20219;-62
2022/07/17 05:45:04;;;;;;;1.83;1.17;;;;;;;;;;5110416;28;20207;-62
2022/07/17 05:47:51;;;;;;;1.30;1.20;;;;;;;;;;5109529;28;20203;-63
2022/07/17 05:50:39;;;;;;;1.63;1.02;;;;;;;;;;5107797;28;20200;-62
2022/07/17 05:53:26;;;;;;;1.38;1.17;;;;;;;;;;5108648;28;20213;-62
2022/07/17 05:56:13;;;;;;;1.70;1.43;;;;;;;;;;5108671;28;20741;-62
2022/07/17 05:59:00;;;;;;;1.33;1.20;;;;;;;;;;5109468;28;20727;-62
2022/07/17 06:01:47;;;;;;;1.60;1.30;;;;;;;;;;5108738;28;20210;-62
2022/07/17 06:04:34;;;;;;;2.40;1.60;;;;;;;;;;5108880;28;20927;-63
2022/07/17 06:07:22;;;;;;;2.40;1.20;;;;;;;;;;5108020;28;20223;-62
2022/07/17 06:10:10;;;;;;;2.42;1.25;;;;;;;;;;5109153;28;20262;-62
2022/07/17 06:12:57;;;;;;;1.63;1.17;;;;;;;;;;5109667;28;20190;-61
2022/07/17 06:15:44;;;;;;;1.67;1.10;;;;;;;;;;5109107;28;20243;-62
2022/07/17 06:18:31;;;;;;;1.67;1.17;;;;;;;;;;5108896;28;20214;-62
2022/07/17 06:21:18;;;;;;;1.15;1.00;;;;;;;;;;5109058;28;20216;-62
2022/07/17 06:24:07;;;;;;;1.60;1.25;;;;;;;;;;5109058;28;20209;-61
2022/07/17 06:26:54;;;;;;;1.98;1.30;;;;;;;;;;5108126;28;20274;-62
2022/07/17 06:29:41;;;;;;;1.50;1.15;;;;;;;;;;5108220;28;20201;-62
2022/07/17 06:32:28;;;;;;;1.70;1.15;;;;;;;;;;5108640;28;20205;-62
2022/07/17 06:35:15;;;;;;;1.73;1.40;;;;;;;;;;5109688;28;20712;-62
2022/07/17 06:38:03;;;;;;;1.77;1.45;;;;;;;;;;5095298;28;20229;-62
2022/07/17 06:40:52;;;;;;;1.27;1.00;;;;;;;;;;5101543;28;20202;-61
2022/07/17 06:43:39;;;;;;;1.13;1.05;;;;;;;;;;5092547;28;20288;-62
2022/07/17 06:46:26;;;;;;;1.58;1.25;;;;;;;;;;5092764;28;20225;-62
2022/07/17 06:49:13;;;;;;;1.70;1.23;;;;;;;;;;5091110;28;20205;-62
2022/07/17 06:52:00;;;;;;;1.90;1.05;;;;;;;;;;5094302;28;20198;-62
2022/07/17 06:54:47;;;;;;;2.47;1.42;;;;;;;;;;5101210;28;20202;-62
2022/07/17 06:57:35;;;;;;;1.20;1.10;;;;;;;;;;5089399;28;20717;-62
2022/07/17 07:00:22;;;;;;;1.90;1.30;;;;;;;;;;5095520;28;20593;-61
2022/07/17 07:03:09;;;;;;;1.73;1.50;;;;;;;;;;5096461;28;20786;-69
2022/07/17 07:05:56;;;;;;;1.10;0.88;;;;;;;;;;5096208;28;20228;-61
2022/07/17 07:08:43;;;;;;;2.28;1.10;;;;;;;;;;5092597;28;20206;-62
2022/07/17 07:11:30;;;;;;;2.05;1.10;;;;;;;;;;5093272;28;20260;-62
2022/07/17 07:14:18;;;;;;;2.40;1.10;;;;;;;;;;5101171;28;20206;-62
2022/07/17 07:17:06;;;;;;;2.30;1.15;;;;;;;;;;5095314;28;20203;-62
2022/07/17 07:19:53;;;;;;;1.27;0.90;;;;;;;;;;5093927;28;20202;-63
2022/07/17 07:22:40;;;;;;;1.38;1.13;;;;;;;;;;5093063;28;20198;-63
2022/07/17 07:25:27;;;;;;;1.67;1.30;;;;;;;;;;5095830;28;20202;-63
2022/07/17 07:28:14;;;;;;;1.15;0.90;;;;;;;;;;5088302;28;20211;-62
2022/07/17 07:31:02;;;;;;;1.77;1.10;;;;;;;;;;5093277;28;20205;-62
2022/07/17 07:33:49;;;;;;;1.50;1.27;;;;;;;;;;5092312;28;20299;-62
2022/07/17 07:36:36;;;;;;;1.10;1.00;;;;;;;;;;5096997;28;20234;-63
2022/07/17 07:39:23;;;;;;;1.00;0.65;;;;;;;;;;5109989;28;20240;-62
2022/07/17 07:42:11;;;;;;;1.13;0.90;;;;;;;;;;5110523;28;20252;-62
2022/07/17 07:44:57;;;;;;;1.75;1.15;;;;;;;;;;5111666;28;20207;-63
2022/07/17 07:47:50;;;;;;;1.13;0.95;;;;;;;;;;5109494;28;20225;-62
2022/07/17 07:50:37;;;;;;;1.27;1.02;;;;;;;;;;5112292;28;20299;-62
2022/07/17 07:53:24;;;;;;;2.42;1.05;;;;;;;;;;5112383;28;20607;-62
2022/07/17 07:56:11;;;;;;;0.77;0.73;;;;;;;;;;5111026;28;20740;-63
2022/07/17 07:58:58;;;;;;;1.13;0.73;;;;;;;;;;5109688;28;20247;-62
2022/07/17 08:01:45;;;;;;;1.13;0.75;;;;;;;;;;5111545;28;20242;-62
2022/07/17 08:04:33;;;;;;;1.40;0.90;;;;;;;;;;5110927;28;20248;-60
2022/07/17 08:07:20;;;;;;;1.15;0.90;;;;;;;;;;5110690;28;20308;-61
2022/07/17 08:10:07;;;;;;;0.80;0.80;;;;;;;;;;5110765;28;20208;-60
2022/07/17 08:12:54;;;;;;;1.05;0.70;;;;;;;;;;5108898;28;20674;-60
2022/07/17 08:15:41;;;;;;;1.17;0.80;;;;;;;;;;5110918;28;20201;-60
2022/07/17 08:18:28;;;;;;;0.82;0.73;;;;;;;;;;5108597;28;20669;-61
2022/07/17 08:21:17;;;;;;;0.82;0.82;;;;;;;;;;5108962;28;20218;-61
2022/07/17 08:24:04;;;;;;;1.23;0.90;;;;;;;;;;5109222;28;20235;-63
2022/07/17 08:26:52;;;;;;;1.02;0.70;;;;;;;;;;5110327;28;20333;-62
2022/07/17 08:29:39;;;;;;;1.33;0.65;;;;;;;;;;5110275;28;20696;-61
2022/07/17 08:32:25;;;;;;;0.77;0.77;;;;;;;;;;5106658;28;20202;-61
2022/07/17 08:35:13;;;;;;;0.75;0.70;;;;;;;;;;5110552;28;20262;-61
2022/07/17 08:38:02;;;;;;;1.05;0.68;;;;;;;;;;5107241;28;20232;-61
2022/07/17 08:40:52;;;;;;;0.65;0.60;;;;;;;;;;5110013;28;20232;-61
2022/07/17 08:43:39;;;;;;;0.68;0.55;;;;;;;;;;5109925;28;20285;-61
2022/07/17 08:46:29;;;;;;;0.43;0.43;;;;;;;;;;5110248;28;20213;-61
2022/07/17 08:49:21;;;;;;;0.40;0.38;;;;;;;;;;5109326;28;20205;-62
2022/07/17 08:52:10;;;;;;;0.93;0.70;;;;;;;;;;5109574;28;20206;-62
2022/07/17 08:54:58;;;;;;;2.35;0.47;;;;;;;;;;5110352;28;20217;-62
2022/07/17 08:57:45;;;;;;;0.50;0.50;;;;;;;;;;5108307;28;20259;-62
2022/07/17 09:00:33;;;;;;;0.70;0.70;;;;;;;;;;5108826;28;20212;-61
2022/07/17 09:03:23;;;;;;;0.93;0.57;;;;;;;;;;5109359;28;20263;-64
2022/07/17 09:06:18;;;;;;;0.40;0.40;;;;;;;;;;5106229;28;20240;-62
2022/07/17 09:09:07;;;;;;;0.28;0.28;;;;;;;;;;5108914;28;20198;-62
2022/07/17 09:11:58;;;;;;;1.10;0.55;;;;;;;;;;5106539;28;20212;-62
2022/07/17 09:14:45;;;;;;;0.60;0.57;;;;;;;;;;5108005;28;20319;-62
2022/07/17 09:17:34;;;;;;;0.43;0.40;;;;;;;;;;5109274;28;20614;-62
2022/07/17 09:20:22;;;;;;;0.35;0.30;;;;;;;;;;5108778;28;20212;-62
2022/07/17 09:23:09;;;;;;;0.40;0.40;;;;;;;;;;5108854;28;20197;-62
2022/07/17 09:25:57;;;;;;;0.40;0.40;;;;;;;;;;5105150;28;20201;-61
2022/07/17 09:28:48;;;;;;;0.47;0.40;;;;;;;;;;5108533;28;21104;-60
2022/07/17 09:31:35;;;;;;;0.63;0.50;;;;;;;;;;5106702;28;20326;-61
2022/07/17 09:34:23;;;;;;;0.68;0.40;;;;;;;;;;5109925;28;20209;-62
2022/07/17 09:37:10;;;;;;;0.68;0.50;;;;;;;;;;5107250;28;20273;-61
2022/07/17 09:39:58;;;;;;;0.32;0.30;;;;;;;;;;5109281;28;20216;-61
2022/07/17 09:42:45;;;;;;;0.43;0.40;;;;;;;;;;5108269;28;20213;-62
2022/07/17 09:45:34;;;;;;;0.38;0.32;;;;;;;;;;5108924;28;20785;-62
2022/07/17 09:48:22;;;;;;;0.55;0.35;;;;;;;;;;5106203;28;20761;-62
2022/07/17 09:51:10;;;;;;;0.30;0.30;;;;;;;;;;5109379;28;20204;-62
2022/07/17 09:54:01;;;;;;;0.50;0.50;;;;;;;;;;5107223;28;20213;-60
2022/07/17 09:56:51;;;;;;;0.60;0.40;;;;;;;;;;5108499;28;20202;-61
2022/07/17 09:59:38;;;;;;;1.75;0.40;;;;;;;;;;5109554;28;20214;-61
2022/07/17 10:02:27;;;;;;;0.20;0.20;;;;;;;;;;5107668;28;20665;-62
2022/07/17 10:05:16;;;;;;;0.40;0.40;;;;;;;;;;5106192;28;20717;-61
2022/07/17 10:08:03;;;;;;;0.40;0.40;;;;;;;;;;5108618;28;20660;-63
2022/07/17 10:10:51;;;;;;;1.38;0.35;;;;;;;;;;5107978;28;20466;-62
2022/07/17 10:13:42;;;;;;;0.45;0.45;;;;;;;;;;5107890;28;20205;-63
2022/07/17 10:16:31;;;;;;;0.43;0.30;;;;;;;;;;5110154;28;20209;-62
2022/07/17 10:19:23;;;;;;;0.40;0.30;;;;;;;;;;5108169;28;20688;-62
2022/07/17 10:22:11;;;;;;;0.28;0.28;;;;;;;;;;5109003;28;20209;-61
2022/07/17 10:25:05;;;;;;;0.13;0.13;;;;;;;;;;5105192;28;20553;-62
2022/07/17 10:27:54;;;;;;;0.35;0.35;;;;;;;;;;5108061;28;20719;-63
2022/07/17 10:30:46;;;;;;;0.80;0.20;;;;;;;;;;5106834;28;20235;-62
2022/07/17 10:33:32;;;;;;;0.30;0.30;;;;;;;;;;5107420;28;20220;-62
2022/07/17 10:36:21;;;;;;;0.38;0.30;;;;;;;;;;5109583;28;20241;-62
2022/07/17 10:39:12;;;;;;;0.30;0.30;;;;;;;;;;5108433;28;20610;-62
2022/07/17 10:42:01;;;;;;;0.30;0.30;;;;;;;;;;5107992;28;20198;-62
2022/07/17 10:44:48;;;;;;;0.30;0.25;;;;;;;;;;5106921;28;20322;-62
2022/07/17 10:47:48;;;;;;;0.20;0.20;;;;;;;;;;5108683;28;20228;-62
2022/07/17 10:50:38;;;;;;;0.30;0.30;;;;;;;;;;5107879;28;20209;-62
2022/07/17 10:53:30;;;;;;;0.32;0.20;;;;;;;;;;5108204;28;20213;-62
2022/07/17 10:56:18;;;;;;;0.22;0.22;;;;;;;;;;5109481;28;20208;-62
2022/07/17 10:59:05;;;;;;;0.43;0.28;;;;;;;;;;5109100;28;20266;-62
2022/07/17 11:01:57;;;;;;;0.30;0.20;;;;;;;;;;5108079;28;20205;-62
2022/07/17 11:04:44;;;;;;;1.25;0.32;;;;;;;;;;5107276;28;20228;-62
2022/07/17 11:07:31;;;;;;;0.17;0.17;;;;;;;;;;5108114;28;20239;-62
2022/07/17 11:10:19;;;;;;;0.28;0.22;;;;;;;;;;5106968;28;20686;-61
2022/07/17 11:13:11;;;;;;;1.95;0.30;;;;;;;;;;5106387;28;20231;-62
2022/07/17 11:15:58;;;;;;;0.32;0.20;;;;;;;;;;5107557;28;20198;-62
2022/07/17 11:18:48;;;;;;;0.22;0.22;;;;;;;;;;5109194;28;20194;-63
2022/07/17 11:21:45;;;;;;;0.38;0.20;;;;;;;;;;5107422;28;20232;-62
2022/07/17 11:24:37;;;;;;;0.55;0.30;;;;;;;;;;5112378;28;20205;-62
2022/07/17 11:27:27;;;;;;;0.10;0.10;;;;;;;;;;5112527;28;20235;-62
2022/07/17 11:30:15;;;;;;;0.20;0.20;;;;;;;;;;5111310;28;20210;-62
2022/07/17 11:33:03;;;;;;;0.20;0.20;;;;;;;;;;5109601;28;20211;-62
2022/07/17 11:35:50;;;;;;;0.77;0.10;;;;;;;;;;5108767;28;20210;-62
2022/07/17 11:38:37;;;;;;;0.98;0.20;;;;;;;;;;5109381;28;20201;-62
2022/07/17 11:41:35;;;;;;;0.20;0.20;;;;;;;;;;5111314;28;20199;-61
2022/07/17 11:44:25;;;;;;;0.20;0.20;;;;;;;;;;5110520;28;20628;-62
2022/07/17 11:47:13;;;;;;;0.20;0.20;;;;;;;;;;5099428;28;20213;-61
2022/07/17 11:50:09;;;;;;;1.35;0.30;;;;;;;;;;5109737;28;20489;-62
2022/07/17 11:53:01;;;;;;;0.35;0.35;;;;;;;;;;5102812;28;20209;-61
2022/07/17 11:55:49;;;;;;;0.30;0.20;;;;;;;;;;5102361;28;20215;-62
2022/07/17 11:58:45;;;;;;;0.88;0.28;;;;;;;;;;5107393;28;20358;-62
2022/07/17 12:01:41;;;;;;;0.17;0.10;;;;;;;;;;5106058;28;20291;-61
2022/07/17 12:04:28;;;;;;;0.20;0.20;;;;;;;;;;5108324;28;20676;-62
2022/07/17 12:07:15;;;;;;;0.10;0.10;;;;;;;;;;5107240;28;20301;-62
2022/07/17 12:10:12;;;;;;;0.13;0.13;;;;;;;;;;5109435;28;20199;-62
2022/07/17 12:13:00;;;;;;;0.30;0.30;;;;;;;;;;5107753;28;20204;-62
2022/07/17 12:15:49;;;;;;;0.15;0.10;;;;;;;;;;5108945;28;20201;-62
2022/07/17 12:18:38;;;;;;;0.17;0.17;;;;;;;;;;5109533;28;20678;-62
2022/07/17 12:21:25;;;;;;;0.28;0.28;;;;;;;;;;5110030;28;20288;-62
2022/07/17 12:24:19;;;;;;;0.20;0.20;;;;;;;;;;5109681;28;20204;-63
2022/07/17 12:27:09;;;;;;;0.20;0.20;;;;;;;;;;5106839;28;20576;-62
2022/07/17 12:29:56;;;;;;;0.43;0.20;;;;;;;;;;5107778;28;20198;-62
2022/07/17 12:32:43;;;;;;;0.38;0.30;;;;;;;;;;5108095;28;20201;-62
2022/07/17 12:35:31;;;;;;;0.10;0.10;;;;;;;;;;5109598;28;20667;-62
2022/07/17 12:38:18;;;;;;;0.73;0.30;;;;;;;;;;5109020;28;20286;-62
2022/07/17 12:41:05;;;;;;;0.55;0.32;;;;;;;;;;5107778;28;20307;-63
2022/07/17 12:43:52;;;;;;;0.10;0.10;;;;;;;;;;5110782;28;20289;-62
2022/07/17 12:46:39;;;;;;;0.20;0.20;;;;;;;;;;5106305;28;20216;-62
2022/07/17 12:49:26;;;;;;;0.28;0.22;;;;;;;;;;5109020;28;20229;-62
2022/07/17 12:52:15;;;;;;;0.32;0.13;;;;;;;;;;5109245;28;20660;-62
2022/07/17 12:55:02;;;;;;;0.90;0.20;;;;;;;;;;5107189;28;20199;-62
2022/07/17 12:57:49;;;;;;;0.40;0.40;;;;;;;;;;5107853;28;20593;-62
2022/07/17 13:00:36;;;;;;;0.82;0.80;;;;;;;;;;5108906;28;20197;-61
2022/07/17 13:03:23;;;;;;;1.13;0.80;;;;;;;;;;5108924;28;20205;-62
2022/07/17 13:06:11;;;;;;;1.23;0.98;;;;;;;;;;5108148;28;20693;-62
2022/07/17 13:08:59;;;;;;;2.13;1.20;;;;;;;;;;5109765;28;20688;-62
2022/07/17 13:11:46;;;;;;;2.10;1.40;;;;;;;;;;5108189;28;20938;-62
2022/07/17 13:14:33;;;;;;;3.08;2.15;;;;;;;;;;5108604;28;20238;-62
2022/07/17 13:17:20;;;;;;;3.00;1.67;;;;;;;;;;5109176;28;20724;-62
2022/07/17 13:20:08;;;;;;;2.67;2.20;;;;;;;;;;5108467;28;20239;-62
2022/07/17 13:22:56;;;;;;;3.13;2.30;;;;;;;;;;5109706;28;20210;-62
2022/07/17 13:25:44;;;;;;;3.47;2.47;;;;;;;;;;5105542;28;20214;-62
2022/07/17 13:28:31;;;;;;;4.50;3.20;;;;;;;;;;5106817;28;20221;-62
2022/07/17 13:31:18;;;;;;;5.88;3.28;;;;;;;;;;5109204;28;20197;-62
2022/07/17 13:34:05;;;;;;;4.00;2.83;;;;;;;;;;5107898;28;20288;-61
2022/07/17 13:36:52;;;;;;;5.35;3.10;;;;;;;;;;5087136;28;20238;-62
2022/07/17 13:39:39;;;;;;;6.65;3.10;;;;;;;;;;5086321;28;20204;-62
2022/07/17 13:42:28;;;;;;;5.57;3.50;;;;;;;;;;5089017;28;20609;-62
2022/07/17 13:45:15;;;;;;;5.80;2.88;;;;;;;;;;5108393;28;20213;-62
2022/07/17 13:48:02;;;;;;;5.90;3.33;;;;;;;;;;5105523;28;20753;-64
2022/07/17 13:50:49;;;;;;;5.13;3.20;;;;;;;;;;5107848;28;20214;-62
2022/07/17 13:53:37;;;;;;;8.00;3.78;;;;;;;;;;5108759;28;20566;-63
2022/07/17 13:56:24;;;;;;;5.32;3.28;;;;;;;;;;5106197;28;20543;-62
2022/07/17 13:59:12;;;;;;;8.23;3.72;;;;;;;;;;5109747;28;20249;-62
2022/07/17 14:01:59;;;;;;;6.78;3.53;;;;;;;;;;5105085;28;20683;-64
2022/07/17 14:04:46;;;;;;;5.00;3.33;;;;;;;;;;5107786;28;20220;-62
2022/07/17 14:07:34;;;;;;;8.15;3.20;;;;;;;;;;5108929;28;20228;-62
2022/07/17 14:10:21;;;;;;;6.80;3.53;;;;;;;;;;5108753;28;20202;-63
2022/07/17 14:13:08;;;;;;;7.40;3.28;;;;;;;;;;5109502;28;20197;-63
2022/07/17 14:15:56;;;;;;;5.97;3.50;;;;;;;;;;5107177;28;20200;-63
2022/07/17 14:21:38;;;;;;;6.60;3.35;;;;;;;;;;5080660;27;1474161;-60
2022/07/17 14:24:25;;;;;;;4.70;3.17;;;;;;;;;;5113161;28;20745;-61
2022/07/17 14:27:12;;;;;;;4.97;3.10;;;;;;;;;;5095915;28;20217;-66
2022/07/17 14:29:59;;;;;;;6.00;3.25;;;;;;;;;;5120602;28;20201;-61
2022/07/17 14:32:46;;;;;;;6.50;3.25;;;;;;;;;;5111712;28;20286;-62
2022/07/17 14:35:34;;;;;;;4.60;2.90;;;;;;;;;;5115902;28;20200;-61
2022/07/17 14:38:22;;;;;;;5.35;2.70;;;;;;;;;;5103706;28;20679;-62
2022/07/17 14:41:09;;;;;;;4.65;2.50;;;;;;;;;;5108261;28;20225;-61
2022/07/17 14:43:57;;;;;;;4.60;2.65;;;;;;;;;;5104215;28;20298;-62
2022/07/17 14:46:44;;;;;;;4.20;2.65;;;;;;;;;;5106756;28;20346;-62
2022/07/17 14:49:31;;;;;;;4.38;2.78;;;;;;;;;;5104951;28;20251;-62
2022/07/17 14:52:18;;;;;;;3.88;2.50;;;;;;;;;;5108817;28;20670;-62
2022/07/17 14:55:08;;;;;;;3.13;2.42;;;;;;;;;;5108907;28;20209;-62
2022/07/17 14:57:55;;;;;;;3.85;2.40;;;;;;;;;;5099877;28;20210;-62
2022/07/17 15:00:42;;;;;;;2.75;1.98;;;;;;;;;;5097040;28;20686;-62
2022/07/17 15:03:29;;;;;;;2.70;2.22;;;;;;;;;;5110240;28;20259;-62
2022/07/17 15:06:16;;;;;;;3.78;2.35;;;;;;;;;;5092627;28;20272;-61
2022/07/17 15:09:03;;;;;;;2.22;1.92;;;;;;;;;;5072796;28;20211;-66
2022/07/17 15:11:51;;;;;;;2.58;1.85;;;;;;;;;;5079785;28;20241;-62
2022/07/17 15:14:38;;;;;;;2.70;2.05;;;;;;;;;;5074638;28;20208;-62
2022/07/17 15:17:25;;;;;;;2.10;1.90;;;;;;;;;;5069475;28;20574;-62
2022/07/17 15:20:12;;;;;;;2.67;2.38;;;;;;;;;;5074436;28;20256;-62
2022/07/17 15:22:59;;;;;;;4.07;2.35;;;;;;;;;;5072194;28;20680;-62
2022/07/17 15:25:46;;;;;;;2.40;1.83;;;;;;;;;;5076095;28;20256;-62
2022/07/17 15:28:35;;;;;;;2.58;1.85;;;;;;;;;;5073531;28;20214;-62
2022/07/17 15:31:22;;;;;;;2.92;1.92;;;;;;;;;;5073638;28;20204;-62
2022/07/17 15:34:09;;;;;;;3.10;2.00;;;;;;;;;;5068217;28;20683;-62
2022/07/17 15:36:56;;;;;;;1.83;1.70;;;;;;;;;;5067077;28;20202;-62
2022/07/17 15:39:43;;;;;;;3.70;2.28;;;;;;;;;;5058462;28;20227;-62
2022/07/17 15:42:30;;;;;;;1.70;1.60;;;;;;;;;;5057256;28;20700;-62
2022/07/17 15:45:19;;;;;;;2.45;1.95;;;;;;;;;;5063075;28;20215;-62
2022/07/17 15:48:06;;;;;;;1.77;1.35;;;;;;;;;;5059948;28;20234;-62
2022/07/17 15:50:53;;;;;;;1.95;1.70;;;;;;;;;;5056541;28;20207;-62
2022/07/17 15:53:41;;;;;;;2.30;1.80;;;;;;;;;;5061547;28;20572;-62
2022/07/17 15:56:28;;;;;;;2.03;1.70;;;;;;;;;;5063896;28;20212;-62
2022/07/17 15:59:16;;;;;;;2.00;1.80;;;;;;;;;;5061909;28;20200;-63
2022/07/17 16:02:04;;;;;;;2.00;1.80;;;;;;;;;;5061038;28;20203;-61
2022/07/17 16:04:51;;;;;;;1.90;1.50;;;;;;;;;;5062644;28;20497;-61
2022/07/17 16:07:38;;;;;;;2.70;1.70;;;;;;;;;;5057322;28;20698;-61
2022/07/17 16:10:25;;;;;;;1.67;1.58;;;;;;;;;;5059313;28;20207;-62
2022/07/17 16:13:12;;;;;;;1.83;1.73;;;;;;;;;;5058653;28;20580;-62
2022/07/17 16:15:59;;;;;;;1.88;1.67;;;;;;;;;;5062022;28;20615;-62
2022/07/17 16:18:49;;;;;;;2.97;2.00;;;;;;;;;;5057977;28;20199;-62
2022/07/17 16:21:36;;;;;;;2.28;1.45;;;;;;;;;;5055565;28;20259;-62
2022/07/17 16:24:23;;;;;;;2.28;1.67;;;;;;;;;;5058995;28;20216;-62
2022/07/17 16:27:10;;;;;;;1.50;1.38;;;;;;;;;;5057447;28;20326;-62
2022/07/17 16:29:58;;;;;;;1.55;1.45;;;;;;;;;;5061736;28;20210;-62
2022/07/17 16:32:45;;;;;;;2.25;1.67;;;;;;;;;;5064444;28;20207;-62
2022/07/17 16:35:33;;;;;;;1.77;1.67;;;;;;;;;;5066531;28;20204;-62
2022/07/17 16:38:20;;;;;;;1.63;1.52;;;;;;;;;;5058448;28;20230;-62
2022/07/17 16:41:08;;;;;;;1.52;1.42;;;;;;;;;;5058854;28;20216;-62
2022/07/17 16:43:54;;;;;;;2.40;1.60;;;;;;;;;;5054309;28;20324;-62
2022/07/17 16:46:41;;;;;;;1.30;1.20;;;;;;;;;;5060186;28;20668;-62
2022/07/17 16:49:28;;;;;;;1.73;1.50;;;;;;;;;;5062816;28;20253;-62
2022/07/17 16:52:17;;;;;;;1.52;1.42;;;;;;;;;;5056414;28;20618;-62